Hayward, MN

3:12 AM CST on December 20, 2014 (GMT -0600)
RCEI | Change Station
CLOSE
Current Station
Personal Weather Station
Location: Hayward, MN
Elevation: 1243 ft
Nearby Weather Stations

Elev 1243 ft 43.62 °N, 93.22 °W | Updated 4 seconds ago

Fog
Fog
27.7 °F
Feels Like 18 °F
N
10.4
Wind Variable Wind from South
Gusts 10.4 mph

Today
High -- | Low -- °F
--% Chance of Precip.
Yesterday
High -- | Low -- °F
Precip. -- in
7:42 AM 4:38 PM
Waning Crescent, 4% visible
Pressure 30.15 in
Visibility 2.0 miles
Clouds Overcast 500 ft
Windchill 18 °F
Dew Point 26 °F
Humidity 92%
Rainfall 0.00 in
Snow Depth Not available.
UV 0 out of 12
Pollen .10 out of 12
Air Quality Not available.
Flu Activity Not available.
METAR KAEL 200852Z AUTO 18007KT 2SM BR OVC005 M02/M02 A3015 RMK AO2

More Conditions Fewer Conditions

Pressure 30.15 in
Visibility 2.0 miles
Clouds Overcast 500 ft
Windchill 18 °F
Dew Point 26 °F
Humidity 92%
Rainfall 0.00 in
Snow Depth Not available.
UV 0 out of 12
Pollen .10 out of 12
Air Quality Not available.
Flu Activity Not available.
METAR KAEL 200852Z AUTO 18007KT 2SM BR OVC005 M02/M02 A3015 RMK AO2

More Conditions Fewer Conditions

10-Day Weather Forecast

Almanac

Astronomy

Dec. 20, 2014 Rise Set
Actual Time
Civil Twilight
Nautical Twilight
Astronomical Twilight
Moon
Length of Visible Light
Length of Day
Tomorrow will be .
, % of the Moon is Illuminated

Today's Extremes

State Highs State Lows

Community

WunderPhotos

Upload Photos

1,779,146 photos uploaded!

WunderBlogs® & News

Nearby

Air Quality

  Air Quality AQ Index Pollutant
Not available.

Snow Depth

Station Depth Elevation

Earthquake Activity

City Distance Mag. Time & Date
Minimum magnitude displayed is 2.5.

Coastal Water Temperatures

Place Temperature

Nearby Weather Stations